createdAt,value
2019-02-05T00:04:42.181Z,16.60
2019-02-05T00:07:27.245Z,17.47
2019-02-05T00:10:21.164Z,17.60
2019-02-05T00:13:05.605Z,18.77
2019-02-05T00:15:50.926Z,16.47
2019-02-05T00:18:44.864Z,16.60
2019-02-05T00:21:29.665Z,18.30
2019-02-05T00:24:14.584Z,18.67
2019-02-05T00:26:59.606Z,17.90
2019-02-05T00:29:53.276Z,16.93
2019-02-05T00:32:37.732Z,16.33
2019-02-05T00:35:22.847Z,18.10
2019-02-05T00:38:07.973Z,17.37
2019-02-05T00:41:01.712Z,15.83
2019-02-05T00:43:46.872Z,15.47
2019-02-05T00:46:40.592Z,17.83
2019-02-05T00:49:25.441Z,18.83
2019-02-05T00:52:10.124Z,18.43
2019-02-05T00:54:55.210Z,16.37
2019-02-05T00:57:40.632Z,17.43
2019-02-05T01:00:34.017Z,16.23
2019-02-05T01:03:19.056Z,16.40
2019-02-05T01:06:12.988Z,15.07
2019-02-05T01:08:58.069Z,14.77
2019-02-05T01:11:44.212Z,16.73
2019-02-05T01:14:28.993Z,16.77
2019-02-05T01:17:13.869Z,15.33
2019-02-05T01:20:07.884Z,15.23
2019-02-05T01:23:01.997Z,15.90
2019-02-05T01:25:57.404Z,17.07
2019-02-05T01:28:42.285Z,16.37
2019-02-05T01:31:27.356Z,16.43
2019-02-05T01:34:21.688Z,17.77
2019-02-05T01:37:15.276Z,16.60
2019-02-05T01:40:00.096Z,16.33
2019-02-05T01:42:45.572Z,16.13
2019-02-05T01:45:38.984Z,13.37
2019-02-05T01:48:23.656Z,15.77
2019-02-05T01:51:08.343Z,13.83
2019-02-05T01:53:53.291Z,15.17
2019-02-05T01:56:40.846Z,15.27
2019-02-05T01:59:24.079Z,14.60
2019-02-05T02:02:08.691Z,16.33
2019-02-05T02:04:53.188Z,14.90
2019-02-05T02:07:47.015Z,13.87
2019-02-05T02:10:40.947Z,15.50
2019-02-05T02:13:25.695Z,17.70
2019-02-05T02:16:10.058Z,17.57
2019-02-05T02:18:54.851Z,18.23
2019-02-05T02:21:39.010Z,17.30
2019-02-05T02:24:32.864Z,14.43
2019-02-05T02:27:18.251Z,19.40
2019-02-05T02:30:03.305Z,17.90
2019-02-05T02:32:48.292Z,17.87
2019-02-05T02:35:33.030Z,19.83
2019-02-05T02:38:17.654Z,17.53
2019-02-05T02:41:10.989Z,18.73
2019-02-05T02:43:55.612Z,17.50
2019-02-05T02:46:40.192Z,19.03
2019-02-05T02:49:25.336Z,18.57
2019-02-05T02:52:10.263Z,19.67
2019-02-05T02:54:54.462Z,20.13
2019-02-05T02:57:39.767Z,19.43
2019-02-05T03:00:25.278Z,19.50
2019-02-05T03:03:18.789Z,20.83
2019-02-05T03:06:03.592Z,18.33
2019-02-05T03:08:48.655Z,19.63
2019-02-05T03:11:44.144Z,18.40
2019-02-05T03:14:28.912Z,21.90
2019-02-05T03:17:13.924Z,21.20
2019-02-05T03:19:58.835Z,17.23
2019-02-05T03:22:45.372Z,19.97
2019-02-05T03:25:39.358Z,25.47
2019-02-05T03:28:24.235Z,21.53
2019-02-05T03:31:09.057Z,20.93
2019-02-05T03:33:54.167Z,18.97
2019-02-05T03:36:48.112Z,21.07
2019-02-05T03:39:42.377Z,19.70
2019-02-05T03:42:35.949Z,19.80
2019-02-05T03:45:20.982Z,19.03
2019-02-05T03:48:06.967Z,21.70
2019-02-05T03:50:51.595Z,20.03
2019-02-05T03:53:36.076Z,19.80
2019-02-05T03:56:20.707Z,19.27
2019-02-05T03:59:05.482Z,19.47
2019-02-05T04:01:59.290Z,19.83
2019-02-05T04:04:52.948Z,19.17
2019-02-05T04:07:37.402Z,19.23
2019-02-05T04:10:22.656Z,19.13
2019-02-05T04:13:08.175Z,19.20
2019-02-05T04:15:54.202Z,21.00
2019-02-05T04:18:48.168Z,19.90
2019-02-05T04:21:42.015Z,20.80
2019-02-05T04:24:27.425Z,21.37
2019-02-05T04:27:21.188Z,21.17
2019-02-05T04:30:14.957Z,24.37
2019-02-05T04:32:59.751Z,21.83
2019-02-05T04:35:44.697Z,20.30
2019-02-05T04:38:29.545Z,20.10
2019-02-05T04:41:23.776Z,21.57
2019-02-05T04:44:17.503Z,19.30
2019-02-05T04:47:02.537Z,20.40
2019-02-05T04:49:56.355Z,23.10
2019-02-05T04:52:40.734Z,22.60
2019-02-05T04:55:25.755Z,22.80
2019-02-05T04:58:10.519Z,22.90
2019-02-05T05:00:55.763Z,22.70
2019-02-05T05:03:40.740Z,21.73
2019-02-05T05:06:34.436Z,19.87
2019-02-05T05:09:19.223Z,22.13
2019-02-05T05:12:04.144Z,23.40
2019-02-05T05:14:49.256Z,22.43
2019-02-05T05:17:43.163Z,24.90
2019-02-05T05:20:28.023Z,23.63
2019-02-05T05:23:12.557Z,21.10
2019-02-05T05:25:56.876Z,19.20
2019-02-05T05:28:50.440Z,19.90
2019-02-05T05:31:35.039Z,22.90
2019-02-05T05:34:20.193Z,24.97
2019-02-05T05:37:14.555Z,22.43
2019-02-05T05:40:07.823Z,20.50
2019-02-05T05:42:52.342Z,20.20
2019-02-05T05:45:37.283Z,23.97
2019-02-05T05:48:22.714Z,22.10
2019-02-05T05:51:16.943Z,20.40
2019-02-05T05:54:10.433Z,23.67
2019-02-05T05:56:55.415Z,24.30
2019-02-05T05:59:39.916Z,21.87
2019-02-05T06:02:24.938Z,24.57
2019-02-05T06:05:09.487Z,21.10
2019-02-05T06:07:54.232Z,23.30
2019-02-05T06:10:39.256Z,22.10
2019-02-05T06:13:24.452Z,23.23
2019-02-05T06:16:18.115Z,24.13
2019-02-05T06:19:03.129Z,22.97
2019-02-05T06:21:47.876Z,22.90
2019-02-05T06:24:32.990Z,22.20
2019-02-05T06:27:17.406Z,25.40
2019-02-05T06:30:11.848Z,23.53
2019-02-05T06:33:06.128Z,28.03
2019-02-05T06:35:59.977Z,25.17
2019-02-05T06:38:44.942Z,24.53
2019-02-05T06:41:30.900Z,27.10
2019-02-05T06:44:15.811Z,29.43
2019-02-05T06:47:00.843Z,24.93
2019-02-05T06:49:54.858Z,22.63
2019-02-05T06:52:40.055Z,24.93
2019-02-05T06:55:25.339Z,28.47
2019-02-05T06:58:09.791Z,25.50
2019-02-05T07:01:03.951Z,23.50
2019-02-05T07:03:57.447Z,27.63
2019-02-05T07:06:42.072Z,24.43
2019-02-05T07:09:36.092Z,25.57
2019-02-05T07:12:20.820Z,24.17
2019-02-05T07:15:06.196Z,26.90
2019-02-05T07:18:00.144Z,26.50
2019-02-05T07:20:44.995Z,23.63
2019-02-05T07:23:29.246Z,29.30
2019-02-05T07:26:13.951Z,24.07
2019-02-05T07:29:02.083Z,23.40
2019-02-05T07:31:45.063Z,23.97
2019-02-05T07:34:29.865Z,28.83
2019-02-05T07:37:15.206Z,26.03
2019-02-05T07:40:00.663Z,26.27
2019-02-05T07:42:46.159Z,28.27
2019-02-05T07:45:31.150Z,26.20
2019-02-05T07:48:15.878Z,26.63
2019-02-05T07:51:00.712Z,25.37
2019-02-05T07:53:45.640Z,27.20
2019-02-05T07:56:30.404Z,31.90
2019-02-05T07:59:15.485Z,27.30
2019-02-05T08:02:00.643Z,25.07
2019-02-05T08:04:54.055Z,27.20
2019-02-05T08:07:39.351Z,29.97
2019-02-05T08:10:33.155Z,27.90
2019-02-05T08:13:26.767Z,28.20
2019-02-05T08:16:11.395Z,29.77
2019-02-05T08:18:56.828Z,28.17
2019-02-05T08:21:42.132Z,26.90
2019-02-05T08:24:38.544Z,28.73
2019-02-05T08:27:23.311Z,26.20
2019-02-05T08:30:07.839Z,31.17
2019-02-05T08:32:54.470Z,29.10
2019-02-05T08:35:39.463Z,29.10
2019-02-05T08:38:24.396Z,25.03
2019-02-05T08:41:09.047Z,28.60
2019-02-05T08:43:54.387Z,41.57
2019-02-05T08:46:48.005Z,32.27
2019-02-05T08:49:32.938Z,31.43
2019-02-05T08:52:17.592Z,31.00
2019-02-05T08:55:03.206Z,27.57
2019-02-05T08:57:56.562Z,29.27
2019-02-05T09:00:50.767Z,26.27
2019-02-05T09:03:36.534Z,27.33
2019-02-05T09:06:20.994Z,29.03
2019-02-05T09:09:14.656Z,30.43
2019-02-05T09:12:08.674Z,28.63
2019-02-05T09:14:53.482Z,25.87
2019-02-05T09:17:38.427Z,28.63
2019-02-05T09:20:32.773Z,25.87
2019-02-05T09:23:26.953Z,25.77
2019-02-05T09:26:12.006Z,25.23
2019-02-05T09:28:56.772Z,27.30
2019-02-05T09:31:41.390Z,28.37
2019-02-05T09:34:35.012Z,23.53
2019-02-05T09:37:20.058Z,25.03
2019-02-05T09:40:13.878Z,22.07
2019-02-05T09:43:00.438Z,24.50
2019-02-05T09:45:54.393Z,29.73
2019-02-05T09:48:39.370Z,26.77
2019-02-05T09:51:33.561Z,24.27
2019-02-05T09:54:27.395Z,24.17
2019-02-05T09:57:11.740Z,24.90
2019-02-05T09:59:56.635Z,24.47
2019-02-05T10:02:41.353Z,24.63
2019-02-05T10:05:26.290Z,25.80
2019-02-05T10:08:10.867Z,24.57
2019-02-05T10:10:55.759Z,25.60
2019-02-05T10:13:41.090Z,22.20
2019-02-05T10:16:35.311Z,26.53
2019-02-05T10:19:29.320Z,21.57
2019-02-05T10:22:23.656Z,26.37
2019-02-05T10:25:37.694Z,24.33
2019-02-05T10:28:32.103Z,27.43
2019-02-05T10:31:27.011Z,31.40
2019-02-05T10:34:12.319Z,29.87
2019-02-05T10:37:06.076Z,28.07
2019-02-05T10:39:51.039Z,29.50
2019-02-05T10:42:45.414Z,31.33
2019-02-05T10:45:39.799Z,29.90
2019-02-05T10:48:25.071Z,39.47
2019-02-05T10:51:10.100Z,26.67
2019-02-05T10:53:54.430Z,28.27
2019-02-05T10:56:39.094Z,24.47
2019-02-05T10:59:24.215Z,28.27
2019-02-05T11:02:09.175Z,22.80
2019-02-05T11:04:54.363Z,24.13
2019-02-05T11:07:39.564Z,23.43
2019-02-05T11:10:33.203Z,26.67
2019-02-05T11:13:18.918Z,22.43
2019-02-05T11:16:04.007Z,24.17
2019-02-05T11:18:48.927Z,31.73
2019-02-05T11:21:33.932Z,27.87
2019-02-05T11:24:19.623Z,24.70
2019-02-05T11:27:04.626Z,27.87
2019-02-05T11:29:49.299Z,29.53
2019-02-05T11:32:34.411Z,31.93
2019-02-05T11:35:19.355Z,27.43
2019-02-05T11:38:04.676Z,25.57
2019-02-05T11:40:59.359Z,24.50
2019-02-05T11:43:44.904Z,25.90
2019-02-05T11:46:29.943Z,22.20
2019-02-05T11:49:24.125Z,25.07
2019-02-05T11:52:18.399Z,27.30
2019-02-05T11:55:11.999Z,21.10
2019-02-05T11:57:57.247Z,29.50
2019-02-05T12:01:15.738Z,17.40
2019-02-05T12:04:00.350Z,22.80
2019-02-05T12:06:53.765Z,22.57
2019-02-05T12:09:38.335Z,24.43
2019-02-05T12:12:23.135Z,22.30
2019-02-05T12:15:08.890Z,23.20
2019-02-05T12:18:02.983Z,24.80
2019-02-05T12:20:56.604Z,27.03
2019-02-05T12:23:41.027Z,18.90
2019-02-05T12:26:30.717Z,19.57
2019-02-05T12:29:34.519Z,20.97
2019-02-05T12:32:19.554Z,21.47
2019-02-05T12:35:04.455Z,21.33
2019-02-05T12:37:50.213Z,25.10
2019-02-05T12:40:35.225Z,21.27
2019-02-05T12:43:20.387Z,21.73
2019-02-05T12:46:05.360Z,20.83
2019-02-05T12:48:59.617Z,25.90
2019-02-05T12:51:53.847Z,22.07
2019-02-05T12:54:47.884Z,19.53
2019-02-05T12:57:32.598Z,22.80
2019-02-05T13:00:26.212Z,20.93
2019-02-05T13:03:11.034Z,22.27
2019-02-05T13:05:55.827Z,20.83
2019-02-05T13:08:50.464Z,23.90
2019-02-05T13:11:34.887Z,19.57
2019-02-05T13:14:19.167Z,22.73
2019-02-05T13:17:04.342Z,23.73
2019-02-05T13:19:49.848Z,23.00
2019-02-05T13:22:43.729Z,22.17
2019-02-05T13:25:38.984Z,21.17
2019-02-05T13:28:23.825Z,22.63
2019-02-05T13:31:08.836Z,19.20
2019-02-05T13:33:53.767Z,23.37
2019-02-05T13:36:37.943Z,18.83
2019-02-05T13:39:22.350Z,18.03
2019-02-05T13:42:16.027Z,23.07
2019-02-05T13:45:09.799Z,19.67
2019-02-05T13:47:54.675Z,17.93
2019-02-05T13:50:39.599Z,20.50
2019-02-05T13:53:24.659Z,18.83
2019-02-05T13:56:18.481Z,19.70
2019-02-05T13:59:03.499Z,20.30
2019-02-05T14:01:58.000Z,19.20
2019-02-05T14:04:50.875Z,17.37
2019-02-05T14:07:36.182Z,19.20
2019-02-05T14:10:21.237Z,19.47
2019-02-05T14:13:15.183Z,16.10
2019-02-05T14:16:00.064Z,19.67
2019-02-05T14:18:54.857Z,16.03
2019-02-05T14:21:30.902Z,19.47
2019-02-05T14:24:15.843Z,18.90
2019-02-05T14:27:00.583Z,18.83
2019-02-05T14:29:45.560Z,20.00
2019-02-05T14:32:30.798Z,17.23
2019-02-05T14:35:24.875Z,16.63
2019-02-05T14:38:18.492Z,22.37
2019-02-05T14:41:03.320Z,21.17
2019-02-05T14:43:48.255Z,22.83
2019-02-05T14:46:33.195Z,15.20
2019-02-05T14:49:27.106Z,17.43
2019-02-05T14:52:20.943Z,13.73
2019-02-05T14:55:05.438Z,14.60
2019-02-05T14:58:00.080Z,15.67
2019-02-05T15:00:45.944Z,14.20
2019-02-05T15:03:30.661Z,14.93
2019-02-05T15:06:14.881Z,16.40
2019-02-05T15:09:08.754Z,14.73
2019-02-05T15:12:03.096Z,15.77
2019-02-05T15:14:56.623Z,18.13
2019-02-05T15:17:41.487Z,15.90
2019-02-05T15:20:35.360Z,12.73
2019-02-05T15:23:20.695Z,20.23
2019-02-05T15:26:05.872Z,20.00
2019-02-05T15:28:52.995Z,17.00
2019-02-05T15:31:38.558Z,19.17
2019-02-05T15:34:32.595Z,19.63
2019-02-05T15:37:25.810Z,45.77
2019-02-05T15:40:10.662Z,81.77
2019-02-05T15:42:55.611Z,33.87
2019-02-05T15:45:40.577Z,36.97
2019-02-05T15:48:25.163Z,52.20
2019-02-05T15:51:09.403Z,38.97
2019-02-05T15:53:54.231Z,25.97
2019-02-05T15:56:38.967Z,16.90
2019-02-05T15:59:24.663Z,16.23
2019-02-05T16:02:09.472Z,20.50
2019-02-05T16:04:54.435Z,16.40
2019-02-05T16:07:48.620Z,11.13
2019-02-05T16:10:45.673Z,11.97
2019-02-05T16:13:30.883Z,10.33
2019-02-05T16:16:24.899Z,12.77
2019-02-05T16:19:09.870Z,18.73
2019-02-05T16:22:03.614Z,14.80
2019-02-05T16:24:48.961Z,10.93
2019-02-05T16:27:42.660Z,9.43
2019-02-05T16:30:37.088Z,12.33
2019-02-05T16:33:34.425Z,19.87
2019-02-05T16:36:27.934Z,19.13
2019-02-05T16:39:12.878Z,18.10
2019-02-05T16:42:06.791Z,27.47
2019-02-05T16:44:51.596Z,11.93
2019-02-05T16:47:36.087Z,11.27
2019-02-05T16:50:21.430Z,12.60
2019-02-05T16:53:15.396Z,10.87
2019-02-05T16:56:00.791Z,12.47
2019-02-05T16:58:46.300Z,15.50
2019-02-05T17:01:31.342Z,11.57
2019-02-05T17:04:16.023Z,10.83
2019-02-05T17:07:00.769Z,11.83
2019-02-05T17:09:45.348Z,9.67
2019-02-05T17:12:30.555Z,13.43
2019-02-05T17:15:15.449Z,10.83
2019-02-05T17:18:00.151Z,11.97
2019-02-05T17:20:45.271Z,10.33
2019-02-05T17:23:39.723Z,11.00
2019-02-05T17:26:33.392Z,12.77
2019-02-05T17:29:18.083Z,12.77
2019-02-05T17:32:02.414Z,10.87
2019-02-05T17:34:46.871Z,12.07
2019-02-05T17:37:32.324Z,10.07
2019-02-05T17:40:17.001Z,9.60
2019-02-05T17:43:02.536Z,11.30
2019-02-05T17:45:56.467Z,10.47
2019-02-05T17:48:50.147Z,10.57
2019-02-05T17:51:35.199Z,11.30
2019-02-05T17:54:29.151Z,12.10
2019-02-05T17:57:13.495Z,10.23
2019-02-05T17:59:58.392Z,13.53
2019-02-05T18:02:51.416Z,12.10
2019-02-05T18:05:28.729Z,9.03
2019-02-05T18:08:22.315Z,10.00
2019-02-05T18:11:07.438Z,7.33
2019-02-05T18:14:01.220Z,10.00
2019-02-05T18:16:45.862Z,11.57
2019-02-05T18:19:30.581Z,9.93
2019-02-05T18:22:15.342Z,11.33
2019-02-05T18:25:00.476Z,10.87
2019-02-05T18:27:54.281Z,12.63
2019-02-05T18:30:39.739Z,10.13
2019-02-05T18:33:33.767Z,10.83
2019-02-05T18:36:27.207Z,11.60
2019-02-05T18:39:12.590Z,15.97
2019-02-05T18:42:08.061Z,10.63
2019-02-05T18:44:52.987Z,11.07
2019-02-05T18:47:37.660Z,13.47
2019-02-05T18:50:22.515Z,11.00
2019-02-05T18:53:07.935Z,12.37
2019-02-05T18:56:01.683Z,12.03
2019-02-05T18:58:55.075Z,14.40
2019-02-05T19:01:39.799Z,13.00
2019-02-05T19:04:25.116Z,11.57
2019-02-05T19:07:10.284Z,11.67
2019-02-05T19:10:03.807Z,12.77
2019-02-05T19:12:57.820Z,17.20
2019-02-05T19:15:42.572Z,21.10
2019-02-05T19:18:27.989Z,19.20
2019-02-05T19:21:41.593Z,18.73
2019-02-05T19:24:51.908Z,10.47
2019-02-05T19:27:55.676Z,12.37
2019-02-05T19:30:41.515Z,11.93
2019-02-05T19:33:43.470Z,9.57
2019-02-05T19:36:37.378Z,11.10
2019-02-05T19:39:23.991Z,8.77
2019-02-05T19:42:18.311Z,12.00
2019-02-05T19:51:57.286Z,13.70
2019-02-05T19:54:45.573Z,10.40
2019-02-05T19:57:39.767Z,10.98
2019-02-05T20:00:33.711Z,9.13
2019-02-05T20:03:18.314Z,9.87
2019-02-05T20:06:04.823Z,10.33
2019-02-05T20:08:48.016Z,10.23
2019-02-05T20:11:45.259Z,9.40
2019-02-05T20:14:39.211Z,9.87
2019-02-05T20:17:33.479Z,9.57
2019-02-05T20:20:27.239Z,13.40
2019-02-05T20:23:21.320Z,10.37
2019-02-05T20:26:06.620Z,9.37
2019-02-05T20:28:51.879Z,9.80
2019-02-05T20:31:36.631Z,10.70
2019-02-05T20:34:21.182Z,9.97
2019-02-05T20:37:14.184Z,10.77
2019-02-05T20:39:58.686Z,10.43
2019-02-05T20:42:44.047Z,14.37
2019-02-05T20:45:28.671Z,13.43
2019-02-05T20:48:13.339Z,12.30
2019-02-05T20:50:57.778Z,13.60
2019-02-05T20:53:42.024Z,11.63
2019-02-05T20:56:35.932Z,12.30
2019-02-05T20:59:21.050Z,17.07
2019-02-05T21:02:14.902Z,19.77
2019-02-05T21:04:59.698Z,11.83
2019-02-05T21:07:44.892Z,13.20
2019-02-05T21:10:38.364Z,12.80
2019-02-05T21:13:23.362Z,13.67
2019-02-05T21:16:10.917Z,14.80
2019-02-05T21:18:56.039Z,11.93
2019-02-05T21:21:40.462Z,12.60
2019-02-05T21:24:26.256Z,13.97
2019-02-05T21:27:19.740Z,10.37
2019-02-05T21:30:04.528Z,11.77
2019-02-05T21:32:48.056Z,13.37
2019-02-05T21:35:34.064Z,14.37
2019-02-05T21:38:18.814Z,18.40
2019-02-05T21:41:03.472Z,18.37
2019-02-05T21:43:48.557Z,16.07
2019-02-05T21:46:33.948Z,17.83
2019-02-05T21:49:27.699Z,20.07
2019-02-05T21:52:12.630Z,19.13
2019-02-05T21:55:07.015Z,21.43
2019-02-05T21:57:51.937Z,17.83
2019-02-05T22:00:36.696Z,21.47
2019-02-05T22:03:22.183Z,19.37
2019-02-05T22:06:07.310Z,20.17
2019-02-05T22:08:51.978Z,17.10
2019-02-05T22:11:36.635Z,19.83
2019-02-05T22:14:21.138Z,23.53
2019-02-05T22:17:06.302Z,18.77
2019-02-05T22:19:51.596Z,19.23
2019-02-05T22:22:45.631Z,20.47
2019-02-05T22:25:39.523Z,20.17
2019-02-05T22:28:24.600Z,18.93
2019-02-05T22:31:18.719Z,18.57
2019-02-05T22:34:12.411Z,20.47
2019-02-05T22:36:57.591Z,23.60
2019-02-05T22:39:51.464Z,21.50
2019-02-05T22:42:36.575Z,26.90
2019-02-05T22:45:30.710Z,21.57
2019-02-05T22:48:24.397Z,24.60
2019-02-05T22:51:09.968Z,23.63
2019-02-05T22:53:55.172Z,25.43
2019-02-05T22:56:40.731Z,25.90
2019-02-05T22:59:35.244Z,26.07
2019-02-05T23:02:20.708Z,27.07
2019-02-05T23:05:05.764Z,25.70
2019-02-05T23:07:50.961Z,28.63
2019-02-05T23:10:45.968Z,27.23
2019-02-05T23:13:30.666Z,24.93
2019-02-05T23:16:14.911Z,25.40
2019-02-05T23:18:59.619Z,27.20
2019-02-05T23:21:56.087Z,27.93
2019-02-05T23:24:49.735Z,27.87
2019-02-05T23:27:34.127Z,24.20
2019-02-05T23:30:19.056Z,25.67
2019-02-05T23:33:04.071Z,25.27
2019-02-05T23:35:48.915Z,23.60
2019-02-05T23:38:33.974Z,27.50
2019-02-05T23:41:27.716Z,25.37
2019-02-05T23:44:13.182Z,26.57
2019-02-05T23:47:06.479Z,25.80
2019-02-05T23:49:51.757Z,26.70
2019-02-05T23:52:37.359Z,27.10
2019-02-05T23:55:22.479Z,24.87
2019-02-05T23:58:07.447Z,25.27
